sensor_id;sensor_type;location;lat;lon;timestamp;P1;durP1;ratioP1;P2;durP2;ratioP2
38937;SDS011;24727;51.974;20.868;2023-06-10T00:00:55;14.95;;;8.60;;
38937;SDS011;24727;51.974;20.868;2023-06-10T00:03:21;10.48;;;8.40;;
38937;SDS011;24727;51.974;20.868;2023-06-10T00:05:49;9.38;;;7.90;;
38937;SDS011;24727;51.974;20.868;2023-06-10T00:08:15;8.82;;;7.65;;
38937;SDS011;24727;51.974;20.868;2023-06-10T00:10:45;8.57;;;7.72;;
38937;SDS011;24727;51.974;20.868;2023-06-10T00:13:11;8.85;;;7.55;;
38937;SDS011;24727;51.974;20.868;2023-06-10T00:15:38;8.68;;;7.78;;
38937;SDS011;24727;51.974;20.868;2023-06-10T00:18:04;10.57;;;7.60;;
38937;SDS011;24727;51.974;20.868;2023-06-10T00:20:31;10.10;;;7.90;;
38937;SDS011;24727;51.974;20.868;2023-06-10T00:22:58;9.32;;;7.80;;
38937;SDS011;24727;51.974;20.868;2023-06-10T00:25:26;10.43;;;7.43;;
38937;SDS011;24727;51.974;20.868;2023-06-10T00:27:53;11.38;;;7.93;;
38937;SDS011;24727;51.974;20.868;2023-06-10T00:30:20;10.23;;;9.23;;
38937;SDS011;24727;51.974;20.868;2023-06-10T00:32:46;14.75;;;8.57;;
38937;SDS011;24727;51.974;20.868;2023-06-10T00:35:12;9.65;;;8.15;;
38937;SDS011;24727;51.974;20.868;2023-06-10T00:37:38;9.50;;;8.48;;
38937;SDS011;24727;51.974;20.868;2023-06-10T00:40:05;9.73;;;8.73;;
38937;SDS011;24727;51.974;20.868;2023-06-10T00:42:34;11.02;;;9.93;;
38937;SDS011;24727;51.974;20.868;2023-06-10T00:45:01;10.38;;;9.38;;
38937;SDS011;24727;51.974;20.868;2023-06-10T00:47:29;13.00;;;9.05;;
38937;SDS011;24727;51.974;20.868;2023-06-10T00:49:57;9.15;;;8.25;;
38937;SDS011;24727;51.974;20.868;2023-06-10T00:52:24;10.93;;;8.95;;
38937;SDS011;24727;51.974;20.868;2023-06-10T00:54:55;9.48;;;8.50;;
38937;SDS011;24727;51.974;20.868;2023-06-10T00:57:21;10.15;;;8.68;;
38937;SDS011;24727;51.974;20.868;2023-06-10T00:59:48;13.50;;;9.07;;
38937;SDS011;24727;51.974;20.868;2023-06-10T01:02:17;9.50;;;7.90;;
38937;SDS011;24727;51.974;20.868;2023-06-10T01:04:44;10.43;;;8.93;;
38937;SDS011;24727;51.974;20.868;2023-06-10T01:07:31;10.38;;;8.68;;
38937;SDS011;24727;51.974;20.868;2023-06-10T01:10:07;12.38;;;8.95;;
38937;SDS011;24727;51.974;20.868;2023-06-10T01:12:43;8.50;;;7.70;;
38937;SDS011;24727;51.974;20.868;2023-06-10T01:15:16;11.00;;;9.23;;
38937;SDS011;24727;51.974;20.868;2023-06-10T01:17:55;10.38;;;8.40;;
38937;SDS011;24727;51.974;20.868;2023-06-10T01:20:24;16.95;;;10.13;;
38937;SDS011;24727;51.974;20.868;2023-06-10T01:22:54;9.73;;;8.70;;
38937;SDS011;24727;51.974;20.868;2023-06-10T01:25:22;11.95;;;10.70;;
38937;SDS011;24727;51.974;20.868;2023-06-10T01:28:02;9.90;;;8.93;;
38937;SDS011;24727;51.974;20.868;2023-06-10T01:33:42;10.35;;;8.85;;
38937;SDS011;24727;51.974;20.868;2023-06-10T01:36:13;9.77;;;8.77;;
38937;SDS011;24727;51.974;20.868;2023-06-10T01:38:44;12.57;;;9.95;;
38937;SDS011;24727;51.974;20.868;2023-06-10T01:41:15;10.48;;;9.48;;
38937;SDS011;24727;51.974;20.868;2023-06-10T01:43:43;11.63;;;9.77;;
38937;SDS011;24727;51.974;20.868;2023-06-10T01:46:10;16.60;;;10.55;;
38937;SDS011;24727;51.974;20.868;2023-06-10T01:48:37;12.13;;;10.00;;
38937;SDS011;24727;51.974;20.868;2023-06-10T01:51:04;13.05;;;9.70;;
38937;SDS011;24727;51.974;20.868;2023-06-10T01:53:31;11.45;;;8.77;;
38937;SDS011;24727;51.974;20.868;2023-06-10T01:55:57;12.02;;;8.43;;
38937;SDS011;24727;51.974;20.868;2023-06-10T01:58:23;12.30;;;9.10;;
38937;SDS011;24727;51.974;20.868;2023-06-10T02:00:51;10.57;;;9.05;;
38937;SDS011;24727;51.974;20.868;2023-06-10T02:03:17;11.13;;;8.60;;
38937;SDS011;24727;51.974;20.868;2023-06-10T02:05:43;10.77;;;8.13;;
38937;SDS011;24727;51.974;20.868;2023-06-10T02:08:09;14.13;;;9.60;;
38937;SDS011;24727;51.974;20.868;2023-06-10T02:10:35;9.13;;;8.15;;
38937;SDS011;24727;51.974;20.868;2023-06-10T02:13:02;13.15;;;9.60;;
38937;SDS011;24727;51.974;20.868;2023-06-10T02:15:29;11.15;;;8.90;;
38937;SDS011;24727;51.974;20.868;2023-06-10T02:17:55;9.70;;;8.70;;
38937;SDS011;24727;51.974;20.868;2023-06-10T02:20:21;13.10;;;7.93;;
38937;SDS011;24727;51.974;20.868;2023-06-10T02:22:48;8.52;;;7.55;;
38937;SDS011;24727;51.974;20.868;2023-06-10T02:25:15;8.07;;;7.38;;
38937;SDS011;24727;51.974;20.868;2023-06-10T02:27:41;9.02;;;8.07;;
38937;SDS011;24727;51.974;20.868;2023-06-10T02:30:07;10.27;;;8.00;;
38937;SDS011;24727;51.974;20.868;2023-06-10T02:32:35;7.10;;;6.40;;
38937;SDS011;24727;51.974;20.868;2023-06-10T02:35:03;8.65;;;7.25;;
38937;SDS011;24727;51.974;20.868;2023-06-10T02:37:29;12.30;;;7.75;;
38937;SDS011;24727;51.974;20.868;2023-06-10T02:39:56;11.88;;;8.40;;
38937;SDS011;24727;51.974;20.868;2023-06-10T02:42:22;8.85;;;7.03;;
38937;SDS011;24727;51.974;20.868;2023-06-10T02:44:48;8.30;;;6.78;;
38937;SDS011;24727;51.974;20.868;2023-06-10T02:47:14;12.55;;;6.75;;
38937;SDS011;24727;51.974;20.868;2023-06-10T02:49:40;7.13;;;6.35;;
38937;SDS011;24727;51.974;20.868;2023-06-10T02:52:06;7.63;;;6.82;;
38937;SDS011;24727;51.974;20.868;2023-06-10T02:54:35;6.93;;;6.20;;
38937;SDS011;24727;51.974;20.868;2023-06-10T02:57:01;7.80;;;6.50;;
38937;SDS011;24727;51.974;20.868;2023-06-10T02:59:27;9.25;;;6.80;;
38937;SDS011;24727;51.974;20.868;2023-06-10T03:01:53;8.95;;;6.43;;
38937;SDS011;24727;51.974;20.868;2023-06-10T03:04:20;6.60;;;5.90;;
38937;SDS011;24727;51.974;20.868;2023-06-10T03:06:48;6.22;;;5.63;;
38937;SDS011;24727;51.974;20.868;2023-06-10T03:09:15;10.20;;;6.50;;
38937;SDS011;24727;51.974;20.868;2023-06-10T03:11:41;12.02;;;6.20;;
38937;SDS011;24727;51.974;20.868;2023-06-10T03:14:07;6.43;;;5.75;;
38937;SDS011;24727;51.974;20.868;2023-06-10T03:16:33;7.03;;;5.80;;
38937;SDS011;24727;51.974;20.868;2023-06-10T03:19:06;6.60;;;5.88;;
38937;SDS011;24727;51.974;20.868;2023-06-10T03:21:33;8.13;;;6.05;;
38937;SDS011;24727;51.974;20.868;2023-06-10T03:24:00;13.93;;;5.95;;
38937;SDS011;24727;51.974;20.868;2023-06-10T03:26:27;11.23;;;5.50;;
38937;SDS011;24727;51.974;20.868;2023-06-10T03:28:53;11.05;;;5.38;;
38937;SDS011;24727;51.974;20.868;2023-06-10T03:31:26;5.70;;;4.80;;
38937;SDS011;24727;51.974;20.868;2023-06-10T03:33:52;8.20;;;4.78;;
38937;SDS011;24727;51.974;20.868;2023-06-10T03:36:18;7.68;;;5.18;;
38937;SDS011;24727;51.974;20.868;2023-06-10T03:38:44;12.73;;;4.95;;
38937;SDS011;24727;51.974;20.868;2023-06-10T03:41:10;6.88;;;5.28;;
38937;SDS011;24727;51.974;20.868;2023-06-10T03:43:36;8.85;;;4.75;;
38937;SDS011;24727;51.974;20.868;2023-06-10T03:46:04;7.60;;;4.75;;
38937;SDS011;24727;51.974;20.868;2023-06-10T03:48:30;9.00;;;5.25;;
38937;SDS011;24727;51.974;20.868;2023-06-10T03:50:58;8.57;;;4.93;;
38937;SDS011;24727;51.974;20.868;2023-06-10T03:53:24;8.07;;;4.90;;
38937;SDS011;24727;51.974;20.868;2023-06-10T03:55:51;6.38;;;5.00;;
38937;SDS011;24727;51.974;20.868;2023-06-10T03:58:17;7.28;;;4.80;;
38937;SDS011;24727;51.974;20.868;2023-06-10T04:00:45;7.03;;;4.72;;
38937;SDS011;24727;51.974;20.868;2023-06-10T04:03:12;11.13;;;5.00;;
38937;SDS011;24727;51.974;20.868;2023-06-10T04:05:39;6.47;;;4.63;;
38937;SDS011;24727;51.974;20.868;2023-06-10T04:08:13;8.73;;;4.85;;
38937;SDS011;24727;51.974;20.868;2023-06-10T04:10:39;6.38;;;5.00;;
38937;SDS011;24727;51.974;20.868;2023-06-10T04:13:05;7.68;;;5.00;;
38937;SDS011;24727;51.974;20.868;2023-06-10T04:15:31;5.65;;;4.65;;
38937;SDS011;24727;51.974;20.868;2023-06-10T04:17:58;8.23;;;4.75;;
38937;SDS011;24727;51.974;20.868;2023-06-10T04:20:25;7.03;;;5.43;;
38937;SDS011;24727;51.974;20.868;2023-06-10T04:22:52;9.38;;;5.22;;
38937;SDS011;24727;51.974;20.868;2023-06-10T04:25:18;11.80;;;5.32;;
38937;SDS011;24727;51.974;20.868;2023-06-10T04:27:46;6.95;;;4.97;;
38937;SDS011;24727;51.974;20.868;2023-06-10T04:30:12;8.68;;;5.03;;
38937;SDS011;24727;51.974;20.868;2023-06-10T04:32:38;9.25;;;5.30;;
38937;SDS011;24727;51.974;20.868;2023-06-10T04:35:04;7.25;;;5.28;;
38937;SDS011;24727;51.974;20.868;2023-06-10T04:37:33;7.60;;;4.80;;
38937;SDS011;24727;51.974;20.868;2023-06-10T04:40:00;12.85;;;4.55;;
38937;SDS011;24727;51.974;20.868;2023-06-10T04:42:26;8.38;;;4.70;;
38937;SDS011;24727;51.974;20.868;2023-06-10T04:44:52;15.73;;;5.25;;
38937;SDS011;24727;51.974;20.868;2023-06-10T04:47:19;7.28;;;4.82;;
38937;SDS011;24727;51.974;20.868;2023-06-10T04:49:45;9.32;;;5.45;;
38937;SDS011;24727;51.974;20.868;2023-06-10T04:52:11;7.80;;;4.50;;
38937;SDS011;24727;51.974;20.868;2023-06-10T04:54:37;9.45;;;5.15;;
38937;SDS011;24727;51.974;20.868;2023-06-10T04:57:06;7.65;;;5.18;;
38937;SDS011;24727;51.974;20.868;2023-06-10T05:02:04;9.15;;;5.18;;
38937;SDS011;24727;51.974;20.868;2023-06-10T05:04:30;9.63;;;5.00;;
38937;SDS011;24727;51.974;20.868;2023-06-10T05:06:57;8.68;;;5.28;;
38937;SDS011;24727;51.974;20.868;2023-06-10T05:09:23;8.35;;;4.85;;
38937;SDS011;24727;51.974;20.868;2023-06-10T05:11:49;8.60;;;5.18;;
38937;SDS011;24727;51.974;20.868;2023-06-10T05:14:15;6.82;;;4.97;;
38937;SDS011;24727;51.974;20.868;2023-06-10T05:16:42;6.28;;;5.13;;
38937;SDS011;24727;51.974;20.868;2023-06-10T05:19:08;9.80;;;4.85;;
38937;SDS011;24727;51.974;20.868;2023-06-10T05:21:35;8.15;;;4.85;;
38937;SDS011;24727;51.974;20.868;2023-06-10T05:24:01;6.63;;;4.97;;
38937;SDS011;24727;51.974;20.868;2023-06-10T05:26:27;5.68;;;4.82;;
38937;SDS011;24727;51.974;20.868;2023-06-10T05:28:54;8.80;;;4.50;;
38937;SDS011;24727;51.974;20.868;2023-06-10T05:31:20;8.88;;;5.05;;
38937;SDS011;24727;51.974;20.868;2023-06-10T05:33:46;7.75;;;5.20;;
38937;SDS011;24727;51.974;20.868;2023-06-10T05:36:12;8.18;;;5.20;;
38937;SDS011;24727;51.974;20.868;2023-06-10T05:38:38;6.07;;;4.25;;
38937;SDS011;24727;51.974;20.868;2023-06-10T05:41:04;7.90;;;4.43;;
38937;SDS011;24727;51.974;20.868;2023-06-10T05:43:30;7.38;;;4.93;;
38937;SDS011;24727;51.974;20.868;2023-06-10T05:45:56;9.07;;;5.57;;
38937;SDS011;24727;51.974;20.868;2023-06-10T05:48:22;6.00;;;4.82;;
38937;SDS011;24727;51.974;20.868;2023-06-10T05:50:48;7.25;;;4.68;;
38937;SDS011;24727;51.974;20.868;2023-06-10T05:53:15;7.13;;;5.03;;
38937;SDS011;24727;51.974;20.868;2023-06-10T05:55:42;6.47;;;4.88;;
38937;SDS011;24727;51.974;20.868;2023-06-10T05:58:08;5.90;;;4.68;;
38937;SDS011;24727;51.974;20.868;2023-06-10T06:00:35;6.93;;;4.78;;
38937;SDS011;24727;51.974;20.868;2023-06-10T06:03:01;7.85;;;5.15;;
38937;SDS011;24727;51.974;20.868;2023-06-10T06:05:26;6.97;;;5.22;;
38937;SDS011;24727;51.974;20.868;2023-06-10T06:07:53;5.03;;;4.53;;
38937;SDS011;24727;51.974;20.868;2023-06-10T06:10:19;8.10;;;4.50;;
38937;SDS011;24727;51.974;20.868;2023-06-10T06:12:45;9.73;;;4.35;;
38937;SDS011;24727;51.974;20.868;2023-06-10T06:15:11;8.65;;;4.93;;
38937;SDS011;24727;51.974;20.868;2023-06-10T06:17:37;8.70;;;5.03;;
38937;SDS011;24727;51.974;20.868;2023-06-10T06:20:03;7.70;;;4.97;;
38937;SDS011;24727;51.974;20.868;2023-06-10T06:22:31;5.28;;;4.05;;
38937;SDS011;24727;51.974;20.868;2023-06-10T06:24:58;10.00;;;5.18;;
38937;SDS011;24727;51.974;20.868;2023-06-10T06:27:24;7.22;;;5.18;;
38937;SDS011;24727;51.974;20.868;2023-06-10T06:29:56;6.60;;;5.00;;
38937;SDS011;24727;51.974;20.868;2023-06-10T06:32:22;6.65;;;4.97;;
38937;SDS011;24727;51.974;20.868;2023-06-10T06:34:50;10.25;;;4.78;;
38937;SDS011;24727;51.974;20.868;2023-06-10T06:37:20;7.40;;;5.03;;
38937;SDS011;24727;51.974;20.868;2023-06-10T06:39:48;10.27;;;4.78;;
38937;SDS011;24727;51.974;20.868;2023-06-10T06:42:15;9.00;;;4.65;;
38937;SDS011;24727;51.974;20.868;2023-06-10T06:44:41;5.10;;;4.15;;
38937;SDS011;24727;51.974;20.868;2023-06-10T06:47:10;6.57;;;4.25;;
38937;SDS011;24727;51.974;20.868;2023-06-10T06:49:36;5.72;;;4.70;;
38937;SDS011;24727;51.974;20.868;2023-06-10T06:52:02;8.50;;;4.45;;
38937;SDS011;24727;51.974;20.868;2023-06-10T06:54:29;10.10;;;4.80;;
38937;SDS011;24727;51.974;20.868;2023-06-10T06:56:56;7.78;;;5.32;;
38937;SDS011;24727;51.974;20.868;2023-06-10T06:59:22;10.05;;;5.05;;
38937;SDS011;24727;51.974;20.868;2023-06-10T07:01:50;6.47;;;4.72;;
38937;SDS011;24727;51.974;20.868;2023-06-10T07:04:19;9.82;;;5.25;;
38937;SDS011;24727;51.974;20.868;2023-06-10T07:06:46;6.07;;;4.80;;
38937;SDS011;24727;51.974;20.868;2023-06-10T07:09:13;6.15;;;4.75;;
38937;SDS011;24727;51.974;20.868;2023-06-10T07:11:39;8.00;;;4.45;;
38937;SDS011;24727;51.974;20.868;2023-06-10T07:14:04;7.47;;;4.50;;
38937;SDS011;24727;51.974;20.868;2023-06-10T07:16:32;9.52;;;4.10;;
38937;SDS011;24727;51.974;20.868;2023-06-10T07:18:58;6.85;;;4.43;;
38937;SDS011;24727;51.974;20.868;2023-06-10T07:21:24;7.32;;;4.93;;
38937;SDS011;24727;51.974;20.868;2023-06-10T07:23:51;8.55;;;4.60;;
38937;SDS011;24727;51.974;20.868;2023-06-10T07:26:19;10.90;;;4.78;;
38937;SDS011;24727;51.974;20.868;2023-06-10T07:28:47;9.93;;;4.18;;
38937;SDS011;24727;51.974;20.868;2023-06-10T07:31:13;7.50;;;4.68;;
38937;SDS011;24727;51.974;20.868;2023-06-10T07:33:38;4.88;;;3.70;;
38937;SDS011;24727;51.974;20.868;2023-06-10T07:36:05;6.57;;;4.40;;
38937;SDS011;24727;51.974;20.868;2023-06-10T07:38:32;4.50;;;3.95;;
38937;SDS011;24727;51.974;20.868;2023-06-10T07:40:59;7.53;;;4.25;;
38937;SDS011;24727;51.974;20.868;2023-06-10T07:43:27;5.72;;;4.40;;
38937;SDS011;24727;51.974;20.868;2023-06-10T07:45:53;5.80;;;4.72;;
38937;SDS011;24727;51.974;20.868;2023-06-10T07:48:21;12.40;;;4.45;;
38937;SDS011;24727;51.974;20.868;2023-06-10T07:50:47;8.05;;;4.25;;
38937;SDS011;24727;51.974;20.868;2023-06-10T07:53:13;6.93;;;4.45;;
38937;SDS011;24727;51.974;20.868;2023-06-10T07:55:39;8.00;;;3.95;;
38937;SDS011;24727;51.974;20.868;2023-06-10T07:58:06;6.38;;;4.43;;
38937;SDS011;24727;51.974;20.868;2023-06-10T08:00:32;8.07;;;4.00;;
38937;SDS011;24727;51.974;20.868;2023-06-10T08:02:58;8.77;;;4.18;;
38937;SDS011;24727;51.974;20.868;2023-06-10T08:05:25;6.65;;;4.20;;
38937;SDS011;24727;51.974;20.868;2023-06-10T08:07:52;6.80;;;3.88;;
38937;SDS011;24727;51.974;20.868;2023-06-10T08:10:18;7.93;;;3.88;;
38937;SDS011;24727;51.974;20.868;2023-06-10T08:12:44;7.35;;;4.32;;
38937;SDS011;24727;51.974;20.868;2023-06-10T08:15:11;7.13;;;4.35;;
38937;SDS011;24727;51.974;20.868;2023-06-10T08:17:37;7.85;;;4.05;;
38937;SDS011;24727;51.974;20.868;2023-06-10T08:20:04;4.38;;;3.80;;
38937;SDS011;24727;51.974;20.868;2023-06-10T08:22:33;6.03;;;4.20;;
38937;SDS011;24727;51.974;20.868;2023-06-10T08:24:59;5.35;;;3.70;;
38937;SDS011;24727;51.974;20.868;2023-06-10T08:27:25;4.20;;;3.70;;
38937;SDS011;24727;51.974;20.868;2023-06-10T08:29:51;4.75;;;4.35;;
38937;SDS011;24727;51.974;20.868;2023-06-10T08:32:18;9.05;;;3.95;;
38937;SDS011;24727;51.974;20.868;2023-06-10T08:34:44;6.10;;;3.55;;
38937;SDS011;24727;51.974;20.868;2023-06-10T08:37:10;4.68;;;3.83;;
38937;SDS011;24727;51.974;20.868;2023-06-10T08:39:36;5.38;;;3.78;;
38937;SDS011;24727;51.974;20.868;2023-06-10T08:42:22;10.77;;;3.90;;
38937;SDS011;24727;51.974;20.868;2023-06-10T08:44:55;7.03;;;3.88;;
38937;SDS011;24727;51.974;20.868;2023-06-10T08:47:24;12.23;;;4.18;;
38937;SDS011;24727;51.974;20.868;2023-06-10T08:49:55;4.82;;;3.75;;
38937;SDS011;24727;51.974;20.868;2023-06-10T08:52:26;7.50;;;3.33;;
38937;SDS011;24727;51.974;20.868;2023-06-10T08:55:02;7.25;;;3.55;;
38937;SDS011;24727;51.974;20.868;2023-06-10T08:57:31;9.13;;;3.70;;
38937;SDS011;24727;51.974;20.868;2023-06-10T08:59:58;10.50;;;3.90;;
38937;SDS011;24727;51.974;20.868;2023-06-10T09:02:27;8.23;;;3.92;;
38937;SDS011;24727;51.974;20.868;2023-06-10T09:04:53;7.22;;;4.00;;
38937;SDS011;24727;51.974;20.868;2023-06-10T09:07:22;7.00;;;3.30;;
38937;SDS011;24727;51.974;20.868;2023-06-10T09:09:48;5.82;;;3.97;;
38937;SDS011;24727;51.974;20.868;2023-06-10T09:12:16;9.35;;;3.60;;
38937;SDS011;24727;51.974;20.868;2023-06-10T09:14:42;5.65;;;4.38;;
38937;SDS011;24727;51.974;20.868;2023-06-10T09:17:08;7.13;;;3.75;;
38937;SDS011;24727;51.974;20.868;2023-06-10T09:19:35;5.45;;;3.40;;
38937;SDS011;24727;51.974;20.868;2023-06-10T09:22:02;5.60;;;3.80;;
38937;SDS011;24727;51.974;20.868;2023-06-10T09:24:28;4.28;;;3.58;;
38937;SDS011;24727;51.974;20.868;2023-06-10T09:27:07;7.63;;;3.67;;
38937;SDS011;24727;51.974;20.868;2023-06-10T09:29:47;10.20;;;3.85;;
38937;SDS011;24727;51.974;20.868;2023-06-10T09:32:17;5.80;;;3.80;;
38937;SDS011;24727;51.974;20.868;2023-06-10T09:34:46;7.65;;;4.05;;
38937;SDS011;24727;51.974;20.868;2023-06-10T09:37:12;5.93;;;3.88;;
38937;SDS011;24727;51.974;20.868;2023-06-10T09:39:45;5.28;;;3.30;;
38937;SDS011;24727;51.974;20.868;2023-06-10T09:42:27;5.82;;;3.78;;
38937;SDS011;24727;51.974;20.868;2023-06-10T09:44:58;4.65;;;3.60;;
38937;SDS011;24727;51.974;20.868;2023-06-10T09:47:24;5.35;;;3.38;;
38937;SDS011;24727;51.974;20.868;2023-06-10T09:49:50;5.45;;;3.88;;
38937;SDS011;24727;51.974;20.868;2023-06-10T09:52:25;6.10;;;3.13;;
38937;SDS011;24727;51.974;20.868;2023-06-10T09:54:55;8.32;;;3.90;;
38937;SDS011;24727;51.974;20.868;2023-06-10T09:57:25;5.60;;;3.70;;
38937;SDS011;24727;51.974;20.868;2023-06-10T09:59:55;3.70;;;3.25;;
38937;SDS011;24727;51.974;20.868;2023-06-10T10:02:21;11.60;;;3.75;;
38937;SDS011;24727;51.974;20.868;2023-06-10T10:04:47;10.77;;;4.40;;
38937;SDS011;24727;51.974;20.868;2023-06-10T10:07:13;12.15;;;3.67;;
38937;SDS011;24727;51.974;20.868;2023-06-10T10:09:41;7.65;;;3.35;;
38937;SDS011;24727;51.974;20.868;2023-06-10T10:12:09;5.63;;;3.80;;
38937;SDS011;24727;51.974;20.868;2023-06-10T10:14:37;5.93;;;3.75;;
38937;SDS011;24727;51.974;20.868;2023-06-10T10:17:10;6.90;;;3.72;;
38937;SDS011;24727;51.974;20.868;2023-06-10T10:19:39;7.57;;;3.65;;
38937;SDS011;24727;51.974;20.868;2023-06-10T10:22:15;4.70;;;3.30;;
38937;SDS011;24727;51.974;20.868;2023-06-10T10:24:48;12.07;;;3.22;;
38937;SDS011;24727;51.974;20.868;2023-06-10T10:27:51;6.13;;;2.92;;
38937;SDS011;24727;51.974;20.868;2023-06-10T10:30:10;7.65;;;3.53;;
38937;SDS011;24727;51.974;20.868;2023-06-10T10:32:43;7.55;;;3.40;;
38937;SDS011;24727;51.974;20.868;2023-06-10T10:35:22;6.90;;;3.42;;
38937;SDS011;24727;51.974;20.868;2023-06-10T10:37:53;5.68;;;3.42;;
38937;SDS011;24727;51.974;20.868;2023-06-10T10:40:23;8.65;;;3.97;;
38937;SDS011;24727;51.974;20.868;2023-06-10T10:42:51;8.82;;;3.72;;
38937;SDS011;24727;51.974;20.868;2023-06-10T10:45:18;4.53;;;3.20;;
38937;SDS011;24727;51.974;20.868;2023-06-10T10:47:49;5.47;;;3.72;;
38937;SDS011;24727;51.974;20.868;2023-06-10T10:50:20;31.65;;;5.70;;
38937;SDS011;24727;51.974;20.868;2023-06-10T10:55:18;7.93;;;4.15;;
38937;SDS011;24727;51.974;20.868;2023-06-10T10:57:45;7.90;;;3.35;;
38937;SDS011;24727;51.974;20.868;2023-06-10T11:00:32;8.05;;;3.88;;
38937;SDS011;24727;51.974;20.868;2023-06-10T11:05:48;6.15;;;3.50;;
38937;SDS011;24727;51.974;20.868;2023-06-10T11:09:00;8.93;;;3.38;;
38937;SDS011;24727;51.974;20.868;2023-06-10T11:11:01;4.05;;;3.30;;
38937;SDS011;24727;51.974;20.868;2023-06-10T11:13:57;6.03;;;3.70;;
38937;SDS011;24727;51.974;20.868;2023-06-10T11:16:27;5.82;;;3.38;;
38937;SDS011;24727;51.974;20.868;2023-06-10T11:18:54;6.28;;;3.70;;
38937;SDS011;24727;51.974;20.868;2023-06-10T11:21:23;6.28;;;3.65;;
38937;SDS011;24727;51.974;20.868;2023-06-10T11:23:52;6.17;;;3.40;;
38937;SDS011;24727;51.974;20.868;2023-06-10T11:31:25;6.47;;;4.20;;
38937;SDS011;24727;51.974;20.868;2023-06-10T11:34:08;4.88;;;3.28;;
38937;SDS011;24727;51.974;20.868;2023-06-10T11:36:38;5.47;;;3.60;;
38937;SDS011;24727;51.974;20.868;2023-06-10T11:39:07;5.30;;;3.40;;
38937;SDS011;24727;51.974;20.868;2023-06-10T11:41:35;7.38;;;3.40;;
38937;SDS011;24727;51.974;20.868;2023-06-10T11:44:12;10.50;;;3.92;;
38937;SDS011;24727;51.974;20.868;2023-06-10T11:46:40;9.75;;;3.97;;
38937;SDS011;24727;51.974;20.868;2023-06-10T11:49:08;6.88;;;4.28;;
38937;SDS011;24727;51.974;20.868;2023-06-10T11:51:38;5.63;;;3.58;;
38937;SDS011;24727;51.974;20.868;2023-06-10T11:54:08;5.80;;;3.75;;
38937;SDS011;24727;51.974;20.868;2023-06-10T11:56:35;7.28;;;4.05;;
38937;SDS011;24727;51.974;20.868;2023-06-10T11:59:04;4.88;;;3.65;;
38937;SDS011;24727;51.974;20.868;2023-06-10T12:01:34;6.63;;;3.90;;
38937;SDS011;24727;51.974;20.868;2023-06-10T12:04:07;4.70;;;4.15;;
38937;SDS011;24727;51.974;20.868;2023-06-10T12:06:38;6.82;;;3.65;;
38937;SDS011;24727;51.974;20.868;2023-06-10T12:09:22;7.07;;;4.40;;
38937;SDS011;24727;51.974;20.868;2023-06-10T12:20:02;5.93;;;3.83;;
38937;SDS011;24727;51.974;20.868;2023-06-10T12:22:39;5.32;;;4.65;;
38937;SDS011;24727;51.974;20.868;2023-06-10T12:25:07;6.07;;;4.10;;
38937;SDS011;24727;51.974;20.868;2023-06-10T12:27:35;8.57;;;5.10;;
38937;SDS011;24727;51.974;20.868;2023-06-10T12:30:03;7.85;;;5.03;;
38937;SDS011;24727;51.974;20.868;2023-06-10T12:32:43;5.38;;;4.50;;
38937;SDS011;24727;51.974;20.868;2023-06-10T12:35:12;9.07;;;4.88;;
38937;SDS011;24727;51.974;20.868;2023-06-10T12:37:43;7.88;;;4.60;;
38937;SDS011;24727;51.974;20.868;2023-06-10T12:40:38;7.50;;;4.70;;
38937;SDS011;24727;51.974;20.868;2023-06-10T12:43:08;7.10;;;4.53;;
38937;SDS011;24727;51.974;20.868;2023-06-10T12:45:38;6.47;;;4.80;;
38937;SDS011;24727;51.974;20.868;2023-06-10T12:48:08;8.65;;;5.10;;
38937;SDS011;24727;51.974;20.868;2023-06-10T12:50:54;8.30;;;4.95;;
38937;SDS011;24727;51.974;20.868;2023-06-10T12:53:23;6.38;;;4.45;;
38937;SDS011;24727;51.974;20.868;2023-06-10T12:55:51;9.43;;;5.30;;
38937;SDS011;24727;51.974;20.868;2023-06-10T12:58:21;6.18;;;5.35;;
38937;SDS011;24727;51.974;20.868;2023-06-10T13:00:48;6.90;;;4.60;;
38937;SDS011;24727;51.974;20.868;2023-06-10T13:03:14;4.45;;;4.05;;
38937;SDS011;24727;51.974;20.868;2023-06-10T13:05:40;9.25;;;5.18;;
38937;SDS011;24727;51.974;20.868;2023-06-10T13:08:08;8.80;;;4.78;;
38937;SDS011;24727;51.974;20.868;2023-06-10T13:10:38;7.35;;;5.07;;
38937;SDS011;24727;51.974;20.868;2023-06-10T13:13:05;6.78;;;5.53;;
38937;SDS011;24727;51.974;20.868;2023-06-10T13:15:34;6.82;;;5.05;;
38937;SDS011;24727;51.974;20.868;2023-06-10T13:18:03;11.40;;;6.80;;
38937;SDS011;24727;51.974;20.868;2023-06-10T13:20:30;11.10;;;5.05;;
38937;SDS011;24727;51.974;20.868;2023-06-10T13:22:56;10.50;;;5.15;;
38937;SDS011;24727;51.974;20.868;2023-06-10T13:25:22;5.78;;;5.13;;
38937;SDS011;24727;51.974;20.868;2023-06-10T13:27:49;11.63;;;6.03;;
38937;SDS011;24727;51.974;20.868;2023-06-10T13:30:16;5.43;;;4.90;;
38937;SDS011;24727;51.974;20.868;2023-06-10T13:32:42;8.43;;;6.00;;
38937;SDS011;24727;51.974;20.868;2023-06-10T13:35:08;6.15;;;5.32;;
38937;SDS011;24727;51.974;20.868;2023-06-10T13:37:34;7.30;;;5.28;;
38937;SDS011;24727;51.974;20.868;2023-06-10T13:40:01;7.60;;;5.80;;
38937;SDS011;24727;51.974;20.868;2023-06-10T13:42:28;6.60;;;5.85;;
38937;SDS011;24727;51.974;20.868;2023-06-10T13:44:55;10.00;;;5.68;;
38937;SDS011;24727;51.974;20.868;2023-06-10T13:47:21;7.43;;;5.63;;
38937;SDS011;24727;51.974;20.868;2023-06-10T13:49:49;7.20;;;5.53;;
38937;SDS011;24727;51.974;20.868;2023-06-10T13:52:15;6.00;;;5.50;;
38937;SDS011;24727;51.974;20.868;2023-06-10T13:54:42;12.45;;;5.93;;
38937;SDS011;24727;51.974;20.868;2023-06-10T13:57:09;5.68;;;5.05;;
38937;SDS011;24727;51.974;20.868;2023-06-10T13:59:36;7.50;;;5.65;;
38937;SDS011;24727;51.974;20.868;2023-06-10T14:02:02;9.43;;;5.13;;
38937;SDS011;24727;51.974;20.868;2023-06-10T14:04:30;8.82;;;5.88;;
38937;SDS011;24727;51.974;20.868;2023-06-10T14:06:56;10.10;;;5.70;;
38937;SDS011;24727;51.974;20.868;2023-06-10T14:09:22;5.88;;;5.30;;
38937;SDS011;24727;51.974;20.868;2023-06-10T14:11:49;8.73;;;5.80;;
38937;SDS011;24727;51.974;20.868;2023-06-10T14:14:15;8.50;;;6.28;;
38937;SDS011;24727;51.974;20.868;2023-06-10T14:16:41;6.70;;;6.00;;
38937;SDS011;24727;51.974;20.868;2023-06-10T14:19:07;7.45;;;5.80;;
38937;SDS011;24727;51.974;20.868;2023-06-10T14:21:33;6.68;;;5.53;;
38937;SDS011;24727;51.974;20.868;2023-06-10T14:23:59;8.60;;;5.25;;
38937;SDS011;24727;51.974;20.868;2023-06-10T14:26:25;11.02;;;5.85;;
38937;SDS011;24727;51.974;20.868;2023-06-10T14:28:51;7.63;;;5.55;;
38937;SDS011;24727;51.974;20.868;2023-06-10T14:31:18;6.88;;;5.80;;
38937;SDS011;24727;51.974;20.868;2023-06-10T14:33:45;7.60;;;6.47;;
38937;SDS011;24727;51.974;20.868;2023-06-10T14:36:11;15.35;;;6.10;;
38937;SDS011;24727;51.974;20.868;2023-06-10T14:38:37;11.15;;;5.95;;
38937;SDS011;24727;51.974;20.868;2023-06-10T14:41:03;8.55;;;6.78;;
38937;SDS011;24727;51.974;20.868;2023-06-10T14:43:29;7.43;;;5.85;;
38937;SDS011;24727;51.974;20.868;2023-06-10T14:45:56;7.60;;;5.88;;
38937;SDS011;24727;51.974;20.868;2023-06-10T14:48:22;7.45;;;6.63;;
38937;SDS011;24727;51.974;20.868;2023-06-10T14:50:49;6.65;;;6.05;;
38937;SDS011;24727;51.974;20.868;2023-06-10T14:53:20;9.68;;;6.40;;
38937;SDS011;24727;51.974;20.868;2023-06-10T14:55:46;9.50;;;6.93;;
38937;SDS011;24727;51.974;20.868;2023-06-10T14:58:12;10.23;;;6.28;;
38937;SDS011;24727;51.974;20.868;2023-06-10T15:00:39;9.25;;;6.95;;